Time;durP1;ratioP1;P1;durP2;ratioP2;P2;SDS_P1;SDS_P2;PMS_P1;PMS_P2;Temp;Humidity;BMP_temperature;BMP_pressure;BME280_temperature;BME280_humidity;BME280_pressure;Samples;Min_cycle;Max_cycle;Signal;HPM_P1;HPM_P2
2022/02/08 00:00:49;;;;;;;3.60;3.30;;;0.90;99.90;1.40;97363.00;;;;5086663;28;20449;-65
2022/02/08 00:03:38;;;;;;;3.77;3.43;;;0.90;99.90;1.50;97344.00;;;;5082636;28;20967;-67
2022/02/08 00:06:41;;;;;;;6.83;4.10;;;0.90;99.90;1.50;97362.00;;;;5080572;28;20429;-66
2022/02/08 00:09:31;;;;;;;5.30;3.47;;;1.00;99.90;1.60;97351.00;;;;5086954;28;20425;-64
2022/02/08 00:12:20;;;;;;;3.83;3.53;;;0.90;99.90;1.60;97352.00;;;;5086106;28;20963;-65
2022/02/08 00:15:09;;;;;;;4.33;3.47;;;1.00;99.90;1.50;97342.00;;;;5086218;28;20800;-67
2022/02/08 00:17:58;;;;;;;7.87;3.40;;;1.00;99.90;1.30;97347.00;;;;5082501;28;20585;-65
2022/02/08 00:20:47;;;;;;;6.60;4.07;;;0.90;99.90;1.20;97352.00;;;;5085608;28;20438;-67
2022/02/08 00:23:37;;;;;;;4.73;3.70;;;0.90;99.90;1.40;97344.00;;;;5072994;28;20461;-65
2022/02/08 00:26:26;;;;;;;4.77;3.43;;;0.90;99.90;1.10;97345.00;;;;5085213;28;20441;-66
2022/02/08 00:29:15;;;;;;;4.13;3.60;;;0.80;99.90;1.30;97355.00;;;;5069868;28;20433;-67
2022/02/08 00:32:06;;;;;;;4.20;3.63;;;0.90;99.90;1.30;97345.00;;;;5081437;28;20446;-65
2022/02/08 00:34:55;;;;;;;3.67;3.27;;;0.80;99.90;1.40;97338.00;;;;5085777;28;20780;-67
2022/02/08 00:37:44;;;;;;;5.00;4.33;;;0.80;99.90;1.40;97348.00;;;;5079183;28;20810;-66
2022/02/08 00:40:34;;;;;;;4.67;3.83;;;0.90;99.90;1.10;97342.00;;;;5090299;28;20996;-65
2022/02/08 00:43:27;;;;;;;3.53;3.23;;;0.80;99.90;1.30;97359.00;;;;5083835;28;20477;-65
2022/02/08 00:46:21;;;;;;;2.73;2.53;;;0.80;99.90;1.10;97363.00;;;;5085433;28;20790;-65
2022/02/08 00:49:11;;;;;;;4.67;3.43;;;0.70;99.90;1.10;97344.00;;;;5084616;28;20432;-65
2022/02/08 00:52:06;;;;;;;3.00;2.70;;;0.80;99.90;1.10;97364.00;;;;5079619;28;20453;-65
2022/02/08 00:54:55;;;;;;;2.60;2.40;;;0.80;99.90;1.20;97364.00;;;;5079290;28;20504;-66
2022/02/08 00:57:46;;;;;;;2.83;2.57;;;0.30;99.90;1.30;97365.00;;;;5085582;28;20936;-66
2022/02/08 01:00:35;;;;;;;3.60;2.87;;;0.80;99.90;1.20;97372.00;;;;5079457;28;20419;-65
2022/02/08 01:03:24;;;;;;;2.83;2.63;;;0.80;99.90;1.20;97365.00;;;;5080675;28;20507;-65
2022/02/08 01:06:15;;;;;;;4.23;2.83;;;0.70;99.90;1.20;97374.00;;;;5081978;28;20429;-66
2022/02/08 01:09:11;;;;;;;3.30;2.97;;;0.80;99.90;1.20;97383.00;;;;5086661;28;20425;-65
2022/02/08 01:12:00;;;;;;;2.20;2.00;;;0.80;99.90;1.20;97375.00;;;;5083675;28;20459;-64
2022/02/08 01:14:53;;;;;;;3.20;2.67;;;0.70;99.90;1.10;97376.00;;;;5086042;28;20512;-65
2022/02/08 01:17:43;;;;;;;2.33;2.17;;;0.70;99.90;1.10;97356.00;;;;5077762;28;20430;-64
2022/02/08 01:20:36;;;;;;;3.40;2.67;;;0.70;99.90;1.00;97365.00;;;;5082976;28;20414;-64
2022/02/08 01:23:24;;;;;;;3.80;2.20;;;0.60;99.90;1.00;97376.00;;;;5085435;28;20862;-66
2022/02/08 01:26:16;;;;;;;3.10;2.37;;;0.60;99.90;1.10;97390.00;;;;5084490;28;21001;-66
2022/02/08 01:29:18;;;;;;;2.63;2.43;;;0.60;99.90;1.00;97372.00;;;;5085948;28;20477;-65
2022/02/08 01:32:31;;;;;;;3.67;2.60;;;0.60;99.90;1.10;97375.00;;;;5083030;28;20983;-65
2022/02/08 01:35:31;;;;;;;2.83;2.43;;;0.60;99.90;1.00;97365.00;;;;5078257;28;20615;-65
2022/02/08 01:38:24;;;;;;;6.83;2.73;;;0.60;99.90;0.80;97389.00;;;;5074158;28;20453;-66
2022/02/08 01:41:29;;;;;;;1.77;1.67;;;0.50;99.90;1.00;97380.00;;;;5084517;28;20816;-65
2022/02/08 01:44:26;;;;;;;2.33;2.13;;;0.50;99.90;0.70;97381.00;;;;5076815;28;20462;-67
2022/02/08 01:47:27;;;;;;;2.30;1.93;;;0.50;99.90;0.50;97373.00;;;;5085151;28;20425;-66
2022/02/08 01:50:17;;;;;;;3.03;2.37;;;0.40;99.90;0.60;97383.00;;;;5083504;28;20417;-66
2022/02/08 01:53:07;;;;;;;2.93;1.80;;;0.40;99.90;0.60;97382.00;;;;5083073;28;20445;-66
2022/02/08 01:55:57;;;;;;;2.03;1.93;;;0.40;99.90;0.60;97393.00;;;;5096469;28;21170;-65
2022/02/08 01:58:46;;;;;;;2.47;1.80;;;0.40;99.90;0.60;97386.00;;;;5084981;28;20413;-67
2022/02/08 02:01:35;;;;;;;2.03;1.93;;;0.30;99.90;0.80;97393.00;;;;5069913;28;20983;-65
2022/02/08 02:04:26;;;;;;;1.90;1.70;;;0.40;99.90;0.40;97397.00;;;;5084166;28;20473;-66
2022/02/08 02:07:16;;;;;;;4.23;2.00;;;0.30;99.90;0.80;97417.00;;;;5082540;28;20436;-65
2022/02/08 02:10:06;;;;;;;2.50;2.10;;;0.40;99.90;0.60;97402.00;;;;5084569;28;20425;-65
2022/02/08 02:12:58;;;;;;;2.03;1.73;;;0.40;99.90;0.60;97391.00;;;;5083669;28;20418;-67
2022/02/08 02:15:48;;;;;;;1.70;1.60;;;0.40;99.90;0.70;97402.00;;;;5084127;28;20472;-66
2022/02/08 02:18:37;;;;;;;3.30;1.10;;;0.40;99.90;0.80;97401.00;;;;5051241;28;20438;-66
2022/02/08 02:21:28;;;;;;;2.50;1.63;;;0.40;99.90;0.50;97414.00;;;;5076965;28;20441;-66
2022/02/08 02:24:18;;;;;;;2.60;2.10;;;0.30;99.90;0.60;97424.00;;;;5084526;28;20801;-67
2022/02/08 02:27:10;;;;;;;2.73;1.57;;;0.30;99.90;0.10;97411.00;;;;5076538;28;20436;-66
2022/02/08 02:29:59;;;;;;;1.57;1.33;;;0.20;99.90;0.10;97408.00;;;;5079627;28;20418;-66
2022/02/08 02:32:48;;;;;;;1.70;1.60;;;0.10;99.90;0.40;97414.00;;;;5083694;28;20975;-66
2022/02/08 02:35:38;;;;;;;3.33;1.83;;;0.10;99.90;0.60;97422.00;;;;5062789;28;20429;-67
2022/02/08 02:38:27;;;;;;;1.60;1.50;;;0.10;99.90;0.40;97417.00;;;;5065344;28;20432;-66
2022/02/08 02:41:17;;;;;;;1.37;1.27;;;0.10;99.90;0.30;97426.00;;;;5083820;28;20445;-67
2022/02/08 02:44:08;;;;;;;1.10;1.00;;;0.10;99.90;0.40;97423.00;;;;5079603;28;20476;-65
2022/02/08 02:46:57;;;;;;;1.47;1.20;;;0.10;99.90;0.40;97412.00;;;;5084137;28;20413;-66
2022/02/08 02:49:46;;;;;;;1.50;1.40;;;0.00;99.90;0.20;97429.00;;;;5084423;28;20935;-65
2022/02/08 02:52:35;;;;;;;2.10;1.40;;;0.00;99.90;0.00;97435.00;;;;5083909;28;20457;-65
2022/02/08 02:55:24;;;;;;;0.90;0.90;;;-0.10;99.90;-0.20;97429.00;;;;5073854;28;20640;-66
2022/02/08 02:58:14;;;;;;;1.37;1.10;;;-0.20;99.90;-0.40;97435.00;;;;5088240;28;20417;-65
2022/02/08 03:01:19;;;;;;;1.07;0.97;;;-0.30;99.90;-0.10;97420.00;;;;5087487;28;20449;-66
2022/02/08 03:04:20;;;;;;;3.30;1.20;;;0.70;99.90;0.00;97445.00;;;;5087801;28;20465;-63
2022/02/08 03:19:36;;;;;;;2.63;1.20;;;-0.50;99.90;-0.60;97454.00;;;;5071865;28;20431;-65
2022/02/08 03:22:25;;;;;;;4.13;1.13;;;-0.60;99.90;-0.20;97455.00;;;;5085784;28;20607;-65
2022/02/08 03:25:14;;;;;;;1.00;1.00;;;-0.50;99.90;-0.10;97451.00;;;;5086261;28;20461;-66
2022/02/08 03:28:03;;;;;;;1.07;0.97;;;-0.50;99.90;-0.10;97457.00;;;;5085372;28;20937;-64
2022/02/08 03:30:54;;;;;;;1.30;0.87;;;-0.40;99.90;0.00;97457.00;;;;5074875;28;20465;-66
2022/02/08 03:33:46;;;;;;;0.60;0.60;;;-0.40;99.90;-0.40;97454.00;;;;5086326;28;20561;-65
2022/02/08 03:36:34;;;;;;;0.73;0.60;;;-0.40;99.90;-0.80;97463.00;;;;5085495;28;20821;-64
2022/02/08 03:39:31;;;;;;;1.00;0.90;;;-0.50;99.90;-0.90;97469.00;;;;5077519;28;20436;-65
2022/02/08 03:42:23;;;;;;;4.20;0.87;;;-0.60;99.90;-0.50;97475.00;;;;5082248;28;20449;-66
2022/02/08 03:45:15;;;;;;;0.90;0.80;;;-0.70;99.90;-0.40;97480.00;;;;5086804;28;20469;-64
2022/02/08 03:48:06;;;;;;;1.13;1.10;;;-0.70;99.90;-0.60;97476.00;;;;5087411;28;20939;-65
2022/02/08 03:51:06;;;;;;;1.23;0.67;;;-0.70;99.90;-0.30;97479.00;;;;5086845;28;20450;-64
2022/02/08 03:53:54;;;;;;;0.73;0.73;;;-0.70;99.90;-0.50;97489.00;;;;5077005;28;20437;-66
2022/02/08 03:56:43;;;;;;;1.90;1.17;;;-0.70;99.90;-0.70;97483.00;;;;5086279;28;20425;-65
2022/02/08 03:59:32;;;;;;;2.83;1.00;;;-0.60;99.90;-0.70;97494.00;;;;5107229;28;20428;-65
2022/02/08 04:02:37;;;;;;;0.90;0.90;;;-0.70;99.90;-0.60;97483.00;;;;5105976;28;20440;-66
2022/02/08 04:05:32;;;;;;;0.67;0.67;;;-0.70;99.90;-0.80;97490.00;;;;5075708;28;20469;-64
2022/02/08 04:08:22;;;;;;;1.97;1.43;;;-0.80;99.90;-0.60;97495.00;;;;5082582;28;20422;-64
2022/02/08 04:11:10;;;;;;;1.40;1.20;;;-0.90;99.90;-0.70;97496.00;;;;5085805;28;20509;-65
2022/02/08 04:14:16;;;;;;;0.90;0.83;;;-0.80;99.90;-0.80;97524.00;;;;5085283;28;20422;-66
2022/02/08 04:17:15;;;;;;;0.83;0.60;;;-0.90;99.90;-0.70;97524.00;;;;5084210;28;20433;-65
2022/02/08 04:33:01;;;;;;;1.37;1.27;;;-0.90;99.90;-0.50;97555.00;;;;5075381;28;20442;-65
2022/02/08 04:36:09;;;;;;;1.83;1.10;;;-1.00;99.90;-0.40;97559.00;;;;5075448;28;20426;-66
2022/02/08 04:39:11;;;;;;;1.70;0.90;;;-0.90;99.90;-0.90;97567.00;;;;5086160;28;20425;-65
2022/02/08 04:42:06;;;;;;;1.77;1.30;;;-0.90;99.90;-0.80;97566.00;;;;5085292;28;20453;-65
2022/02/08 04:45:06;;;;;;;1.50;1.30;;;-1.00;99.90;-0.60;97571.00;;;;5086242;28;20465;-66
2022/02/08 04:48:07;;;;;;;1.00;1.00;;;-1.00;99.90;-0.60;97565.00;;;;5086363;28;20815;-66
2022/02/08 04:51:07;;;;;;;0.80;0.80;;;-1.00;99.90;-1.30;97559.00;;;;5086255;28;20988;-66
2022/02/08 04:54:10;;;;;;;1.33;1.27;;;-1.00;99.90;-1.00;97554.00;;;;5086160;28;20441;-65
2022/02/08 04:57:10;;;;;;;3.63;1.00;;;-1.10;99.90;-0.90;97554.00;;;;5075158;28;20429;-65
2022/02/08 05:00:17;;;;;;;1.37;0.77;;;-1.10;99.90;-0.90;97562.00;;;;5085316;28;20421;-65
2022/02/08 05:40:55;;;;;;;0.80;0.80;;;-1.40;99.90;-1.80;97590.00;;;;5084411;28;20431;-65
2022/02/08 05:44:08;;;;;;;0.90;0.73;;;-1.50;99.90;-1.50;97600.00;;;;5080037;28;20425;-66
2022/02/08 05:46:57;;;;;;;2.20;1.23;;;-1.60;99.90;-2.00;97603.00;;;;5074774;28;20954;-66
2022/02/08 05:49:51;;;;;;;1.60;1.10;;;-1.60;99.90;-2.00;97618.00;;;;5079533;28;20463;-66
2022/02/08 05:52:50;;;;;;;1.03;0.87;;;-1.60;99.90;-2.00;97616.00;;;;5072873;28;20467;-65
2022/02/08 05:55:38;;;;;;;0.97;0.97;;;-1.70;99.90;-1.50;97623.00;;;;5084320;28;20421;-65
2022/02/08 05:58:27;;;;;;;3.10;1.37;;;-1.70;99.90;-1.40;97622.00;;;;5077123;28;20838;-65
2022/02/08 06:01:18;;;;;;;1.43;1.33;;;-1.60;99.90;-1.70;97622.00;;;;5083909;28;20455;-64
2022/02/08 06:04:09;;;;;;;1.77;1.37;;;-1.60;99.90;-1.70;97632.00;;;;5085342;28;20520;-65
2022/02/08 06:06:57;;;;;;;4.20;1.30;;;-1.70;99.90;-1.50;97623.00;;;;5082921;28;20418;-65
2022/02/08 06:09:48;;;;;;;1.20;1.10;;;-1.70;99.90;-1.70;97635.00;;;;5083765;28;20430;-63
2022/02/08 06:12:45;;;;;;;6.40;1.27;;;-1.80;99.90;-1.80;97647.00;;;;5082518;28;20445;-64
2022/02/08 06:15:34;;;;;;;0.90;0.90;;;-1.80;99.90;-2.10;97638.00;;;;5084230;28;20940;-65
2022/02/08 06:18:24;;;;;;;3.40;2.03;;;-1.80;99.90;-1.90;97632.00;;;;5071845;28;20438;-66
2022/02/08 06:21:14;;;;;;;3.20;1.40;;;-1.90;99.90;-1.60;97649.00;;;;5072889;28;20450;-65
2022/02/08 06:24:04;;;;;;;1.33;0.93;;;-1.90;99.90;-1.50;97641.00;;;;5083548;28;20681;-65
2022/02/08 06:26:52;;;;;;;2.90;2.43;;;-1.90;99.90;-2.20;97633.00;;;;5084271;28;20426;-65
2022/02/08 06:29:41;;;;;;;2.70;2.37;;;-1.90;99.90;-1.80;97653.00;;;;5086402;28;20422;-65
2022/02/08 06:32:32;;;;;;;2.13;1.87;;;-1.90;99.90;-2.30;97641.00;;;;5087851;28;20927;-64
2022/02/08 06:35:25;;;;;;;2.20;1.70;;;-2.00;99.90;-2.30;97635.00;;;;5088331;28;20440;-64
2022/02/08 06:38:16;;;;;;;2.17;2.00;;;-2.10;99.90;-2.20;97632.00;;;;5080820;28;20429;-65
2022/02/08 06:41:06;;;;;;;1.67;1.57;;;-2.10;99.90;-2.00;97636.00;;;;5079728;28;20438;-64
2022/02/08 06:43:55;;;;;;;2.90;1.33;;;-2.20;99.90;-2.50;97649.00;;;;5078022;28;21042;-63
2022/02/08 06:46:44;;;;;;;2.10;1.97;;;-2.10;99.90;-2.10;97649.00;;;;5086517;28;21073;-64
2022/02/08 06:49:33;;;;;;;1.80;1.70;;;-2.20;99.90;-1.80;97646.00;;;;5086279;28;20471;-65
2022/02/08 06:52:23;;;;;;;1.40;1.30;;;-2.10;99.90;-1.80;97659.00;;;;5073852;28;20480;-67
2022/02/08 06:55:12;;;;;;;1.43;1.33;;;-2.00;99.90;-1.60;97673.00;;;;5093762;28;20420;-66
2022/02/08 06:58:03;;;;;;;1.60;1.50;;;-2.00;99.90;-1.50;97658.00;;;;5090542;28;20900;-65
2022/02/08 07:00:59;;;;;;;1.80;1.70;;;-2.00;99.90;-1.60;97665.00;;;;5077451;28;20446;-66
2022/02/08 07:03:49;;;;;;;2.00;1.90;;;-1.90;99.90;-1.80;97665.00;;;;5086917;28;20932;-66
2022/02/08 07:06:38;;;;;;;2.70;1.93;;;-1.90;99.90;-1.70;97678.00;;;;5086230;28;20460;-64
2022/02/08 07:09:28;;;;;;;1.90;1.77;;;-1.90;99.90;-2.20;97665.00;;;;5080028;28;20436;-66
2022/02/08 07:12:17;;;;;;;3.70;2.50;;;-1.90;99.90;-2.00;97673.00;;;;5081823;28;20823;-65
2022/02/08 07:15:10;;;;;;;9.07;4.87;;;-1.90;99.90;-1.40;97666.00;;;;5080676;28;20963;-66
2022/02/08 07:18:02;;;;;;;7.47;3.87;;;-1.80;99.90;-1.70;97654.00;;;;5067610;28;20430;-65
2022/02/08 07:20:51;;;;;;;5.73;2.13;;;-1.70;99.90;-1.30;97661.00;;;;5088693;28;20485;-64
2022/02/08 07:23:40;;;;;;;4.43;1.80;;;-1.70;99.90;-1.60;97675.00;;;;5086742;28;20433;-66
2022/02/08 07:26:30;;;;;;;1.57;1.43;;;-1.60;99.90;-2.00;97669.00;;;;5078942;28;20457;-65
2022/02/08 07:29:19;;;;;;;3.47;1.53;;;-1.70;99.90;-1.70;97663.00;;;;5080894;28;20774;-65
2022/02/08 07:32:09;;;;;;;2.90;1.83;;;-1.70;99.90;-1.10;97674.00;;;;5087214;28;20826;-65
2022/02/08 07:35:11;;;;;;;4.00;2.47;;;-1.60;99.90;-1.00;97666.00;;;;5082573;28;20433;-66
2022/02/08 07:38:05;;;;;;;4.77;3.43;;;-1.40;99.90;-0.90;97685.00;;;;5077305;28;20430;-66
2022/02/08 07:44:02;;;;;;;3.23;1.90;;;-1.30;99.90;-0.90;97682.00;;;;5078300;28;20435;-65
2022/02/08 07:46:51;;;;;;;2.93;2.10;;;-1.30;99.90;-0.80;97675.00;;;;5087406;28;20469;-65
2022/02/08 07:49:41;;;;;;;5.10;4.60;;;-1.20;99.90;-0.60;97682.00;;;;5086658;28;20807;-64
2022/02/08 07:52:30;;;;;;;5.37;3.47;;;-1.10;99.90;-1.30;97674.00;;;;5080962;28;21039;-62
2022/02/08 07:55:19;;;;;;;3.00;2.70;;;-1.10;99.90;-0.90;97686.00;;;;5074876;28;20491;-65
2022/02/08 07:58:08;;;;;;;3.13;1.50;;;-1.00;99.90;-0.70;97683.00;;;;5087433;28;20441;-65
2022/02/08 08:01:06;;;;;;;6.73;3.77;;;-1.00;99.90;-1.20;97676.00;;;;5098574;28;20459;-65
2022/02/08 08:03:55;;;;;;;6.03;2.40;;;-1.00;99.90;-1.30;97666.00;;;;5080414;28;20433;-64
2022/02/08 08:06:44;;;;;;;5.03;3.10;;;-1.00;99.90;-0.30;97675.00;;;;5082772;28;20469;-66
2022/02/08 08:09:39;;;;;;;2.87;1.70;;;-0.90;99.90;-0.60;97663.00;;;;5081388;28;20418;-66
2022/02/08 08:12:28;;;;;;;4.57;1.87;;;-0.80;99.90;-0.30;97663.00;;;;5084800;28;20467;-65
2022/02/08 08:15:32;;;;;;;3.57;1.43;;;-0.70;99.90;0.20;97686.00;;;;5087779;28;20430;-64
2022/02/08 08:18:38;;;;;;;6.40;1.93;;;-0.60;99.90;0.20;97686.00;;;;5085771;28;20430;-65
2022/02/08 08:21:27;;;;;;;4.47;2.07;;;-0.40;99.90;0.10;97692.00;;;;5085895;28;20456;-66
2022/02/08 08:24:17;;;;;;;1.30;1.20;;;-0.30;99.90;0.20;97694.00;;;;5073842;28;20433;-65
2022/02/08 08:27:08;;;;;;;3.00;1.50;;;-0.20;99.90;0.40;97695.00;;;;5085897;28;20465;-66
2022/02/08 08:29:57;;;;;;;2.30;1.30;;;-0.10;99.90;0.40;97694.00;;;;5085847;28;20458;-66
2022/02/08 08:32:45;;;;;;;2.13;1.70;;;0.00;99.90;0.80;97691.00;;;;5085980;28;20445;-65
2022/02/08 08:35:37;;;;;;;3.03;2.00;;;0.10;99.90;0.50;97686.00;;;;5094647;28;20797;-64
2022/02/08 08:38:29;;;;;;;10.00;1.67;;;0.10;99.90;1.00;97675.00;;;;5067706;28;20423;-64
2022/02/08 08:41:29;;;;;;;5.00;1.97;;;0.20;99.90;1.90;97686.00;;;;5069596;28;20979;-65
2022/02/08 08:44:40;;;;;;;1.67;1.57;;;0.50;99.90;2.10;97710.00;;;;5069636;28;20952;-65
2022/02/08 08:50:48;;;;;;;2.20;1.27;;;1.00;99.90;2.10;97690.00;;;;5085304;28;20440;-65
2022/02/08 08:53:39;;;;;;;3.67;1.20;;;1.10;99.90;3.40;97713.00;;;;5069760;28;20441;-66
2022/02/08 08:56:28;;;;;;;2.80;1.80;;;1.70;99.90;3.40;97713.00;;;;5085803;28;20426;-67
2022/02/08 08:59:19;;;;;;;2.47;1.20;;;2.10;99.90;2.50;97704.00;;;;5084594;28;20489;-68
2022/02/08 09:02:08;;;;;;;2.77;0.60;;;2.30;99.90;3.50;97716.00;;;;5088828;28;20441;-66
2022/02/08 09:04:57;;;;;;;1.07;0.70;;;2.60;99.90;4.10;97723.00;;;;5083310;28;20437;-66
2022/02/08 09:07:48;;;;;;;0.40;0.40;;;3.30;99.90;4.70;97704.00;;;;5085515;28;20461;-66
2022/02/08 09:10:46;;;;;;;1.20;0.70;;;3.70;99.90;5.40;97706.00;;;;5080775;28;20467;-67
2022/02/08 09:13:40;;;;;;;1.17;0.97;;;4.20;99.90;5.20;97704.00;;;;5075886;28;20799;-63
2022/02/08 09:16:35;;;;;;;1.07;0.77;;;4.60;97.90;5.30;97697.00;;;;5074070;28;20428;-65
2022/02/08 09:19:47;;;;;;;1.07;0.50;;;4.90;92.90;5.50;97705.00;;;;5072537;28;20425;-64
2022/02/08 09:22:59;;;;;;;0.57;0.50;;;6.50;84.90;5.70;97705.00;;;;5084324;28;20457;-66
2022/02/08 09:26:03;;;;;;;0.70;0.70;;;5.40;85.10;5.70;97714.00;;;;5086690;28;20221;-65
2022/02/08 09:28:54;;;;;;;0.40;0.40;;;5.50;87.60;6.40;97720.00;;;;5085105;28;20791;-66
2022/02/08 09:31:44;;;;;;;0.60;0.40;;;5.60;81.30;6.00;97709.00;;;;5084170;28;20591;-65
2022/02/08 09:34:34;;;;;;;1.63;0.80;;;5.80;81.30;5.70;97703.00;;;;5101379;28;20658;-64
2022/02/08 09:37:23;;;;;;;0.70;0.70;;;5.80;78.50;6.10;97726.00;;;;5081939;28;20214;-65
2022/02/08 09:40:14;;;;;;;2.10;1.17;;;5.90;76.10;6.20;97709.00;;;;5086123;28;20206;-64
2022/02/08 09:43:05;;;;;;;0.20;0.20;;;6.10;70.00;6.60;97719.00;;;;5084838;28;20893;-65
2022/02/08 09:45:54;;;;;;;1.23;0.63;;;6.30;71.30;7.30;97730.00;;;;5097053;28;20210;-66
2022/02/08 09:48:46;;;;;;;3.03;1.03;;;6.50;69.50;7.60;97730.00;;;;5105306;28;20214;-67
2022/02/08 09:51:38;;;;;;;2.07;0.77;;;6.70;70.70;7.50;97740.00;;;;5084335;28;20246;-66
2022/02/08 09:54:27;;;;;;;0.40;0.30;;;6.80;68.60;6.70;97719.00;;;;5080758;28;20215;-64
2022/02/08 09:57:16;;;;;;;0.40;0.40;;;6.80;68.90;6.70;97713.00;;;;5083995;28;20203;-65
2022/02/08 10:00:09;;;;;;;0.63;0.40;;;6.80;65.90;6.90;97722.00;;;;5075344;28;20256;-62
2022/02/08 10:03:06;;;;;;;1.73;0.60;;;6.80;67.70;7.60;97724.00;;;;5082700;28;20206;-66
2022/02/08 10:05:56;;;;;;;0.30;0.20;;;7.00;67.90;7.00;97725.00;;;;5079782;28;20207;-65
2022/02/08 10:08:45;;;;;;;2.30;0.57;;;7.00;65.10;6.90;97712.00;;;;5084954;28;20591;-65
2022/02/08 10:11:42;;;;;;;5.20;0.77;;;7.00;65.20;7.70;97733.00;;;;5081270;28;20234;-68
2022/02/08 10:14:54;;;;;;;2.20;0.40;;;7.20;63.60;7.70;97723.00;;;;5077529;28;20320;-65
2022/02/08 10:24:11;;;;;;;0.30;0.30;;;7.50;66.40;7.30;97705.00;;;;5085231;28;20214;-71
2022/02/08 10:27:04;;;;;;;0.47;0.40;;;7.50;65.00;7.30;97705.00;;;;5084390;28;20309;-65
2022/02/08 10:39:19;;;;;;;3.07;1.37;;;7.70;63.30;8.70;97723.00;;;;5080232;28;20211;-66
2022/02/08 10:42:15;;;;;;;8.27;3.00;;;8.00;61.10;9.90;97740.00;;;;5078732;28;20245;-67
2022/02/08 10:45:20;;;;;;;2.83;0.70;;;8.30;66.10;9.60;97714.00;;;;5081583;28;20582;-65
2022/02/08 10:48:12;;;;;;;0.50;0.50;;;8.80;62.70;8.70;97712.00;;;;5082503;28;20681;-66
2022/02/08 10:51:01;;;;;;;0.30;0.30;;;9.00;60.00;9.20;97698.00;;;;5075756;28;20618;-68
2022/02/08 10:53:59;;;;;;;2.40;0.40;;;9.10;58.00;10.00;97723.00;;;;5079462;28;20586;-66
2022/02/08 10:56:54;;;;;;;0.80;0.50;;;9.30;58.50;9.80;97731.00;;;;5078654;28;20221;-67
2022/02/08 10:59:50;;;;;;;0.53;0.53;;;9.60;57.20;9.00;97677.00;;;;5080736;28;20203;-65
2022/02/08 11:02:44;;;;;;;4.27;0.70;;;9.40;57.10;9.60;97688.00;;;;5074186;28;20223;-65
2022/02/08 11:05:44;;;;;;;1.47;0.43;;;9.30;58.30;10.00;97729.00;;;;5080491;28;20203;-68
2022/02/08 11:08:55;;;;;;;0.50;0.50;;;9.60;56.50;10.70;97712.00;;;;5078793;28;20219;-66
2022/02/08 11:12:02;;;;;;;0.93;0.60;;;9.80;58.10;9.50;97698.00;;;;5079188;28;20571;-67
2022/02/08 11:15:06;;;;;;;0.60;0.60;;;9.70;56.50;9.90;97680.00;;;;5068332;28;20564;-64
2022/02/08 11:21:20;;;;;;;0.50;0.50;;;9.80;55.80;11.30;97703.00;;;;5086573;28;20215;-68
2022/02/08 11:24:24;;;;;;;0.40;0.40;;;10.10;56.10;11.00;97696.00;;;;5093700;28;20260;-65
2022/02/08 11:27:18;;;;;;;0.47;0.30;;;10.50;57.30;10.60;97704.00;;;;5091033;28;20234;-65
2022/02/08 11:30:14;;;;;;;0.57;0.30;;;10.50;54.00;12.00;97696.00;;;;5086494;28;20199;-65
2022/02/08 11:33:19;;;;;;;0.30;0.30;;;10.80;55.20;13.40;97717.00;;;;5086108;28;20262;-66
2022/02/08 11:43:09;;;;;;;1.03;0.30;;;11.00;52.60;11.80;97686.00;;;;5081358;28;20272;-65
2022/02/08 11:46:07;;;;;;;0.93;0.63;;;11.10;53.30;12.40;97711.00;;;;5083943;28;20207;-67
2022/02/08 11:52:33;;;;;;;0.87;0.30;;;11.60;52.10;11.80;97677.00;;;;5078101;28;20235;-64
2022/02/08 11:58:33;;;;;;;0.50;0.40;;;11.10;53.20;11.50;97679.00;;;;5084307;28;20203;-67
2022/02/08 12:01:40;;;;;;;0.40;0.40;;;11.10;52.30;10.80;97671.00;;;;5083348;28;20271;-64
2022/02/08 12:04:44;;;;;;;1.40;0.30;;;11.00;52.10;12.00;97705.00;;;;5082786;28;20205;-62
2022/02/08 12:07:36;;;;;;;0.40;0.40;;;11.10;54.10;13.00;97697.00;;;;5077442;28;20223;-66
2022/02/08 12:10:30;;;;;;;0.90;0.50;;;11.50;52.20;12.10;97691.00;;;;5082814;28;20207;-65
2022/02/08 12:13:54;;;;;;;0.97;0.40;;;11.70;51.10;11.70;97682.00;;;;5079898;28;20260;-65
2022/02/08 12:36:30;;;;;;;0.30;0.30;;;11.20;50.70;11.40;97683.00;;;;5076064;28;20559;-65
2022/02/08 12:48:27;;;;;;;3.03;0.50;;;11.10;51.10;10.80;97668.00;;;;5079467;28;20743;-64
2022/02/08 12:50:04;;;;;;;0.80;0.40;;;11.10;51.00;11.40;97674.00;;;;5035819;28;20284;-64
2022/02/08 12:56:12;;;;;;;0.60;0.40;;;11.50;50.60;12.30;97656.00;;;;5072387;28;20553;-65
2022/02/08 12:59:14;;;;;;;1.73;0.67;;;11.70;51.10;13.30;97674.00;;;;5074139;28;20232;-66
2022/02/08 13:02:33;;;;;;;0.50;0.27;;;12.30;50.10;11.60;97653.00;;;;5079404;28;20229;-65
2022/02/08 14:01:49;;;;;;;0.50;0.30;;;14.50;47.90;16.50;97652.00;;;;5088691;28;20681;-66
2022/02/08 14:05:32;;;;;;;0.30;0.30;;;15.40;48.10;16.40;97642.00;;;;5095243;28;20207;-67
2022/02/08 14:08:27;;;;;;;1.37;0.87;;;15.80;46.50;18.30;97655.00;;;;5089017;28;20572;-67
2022/02/08 14:14:34;;;;;;;0.50;0.30;;;17.40;45.20;18.20;97658.00;;;;5064830;28;20203;-68
2022/02/08 14:17:34;;;;;;;2.23;0.33;;;17.50;45.10;19.40;97665.00;;;;5101116;28;20752;-67
2022/02/08 14:29:56;;;;;;;0.60;0.40;;;17.90;43.80;17.20;97653.00;;;;5051792;28;20203;-67
2022/02/08 14:32:54;;;;;;;1.00;0.30;;;17.70;43.60;18.00;97638.00;;;;5068647;28;20215;-68
2022/02/08 14:36:04;;;;;;;0.60;0.60;;;17.40;44.70;19.50;97640.00;;;;5048817;28;20211;-68
2022/02/08 14:57:46;;;;;;;0.70;0.40;;;19.20;44.40;20.60;97629.00;;;;5056985;28;20249;-67
2022/02/08 15:05:26;;;;;;;0.80;0.60;;;19.80;43.70;16.90;97614.00;;;;5060913;28;20289;-67
2022/02/08 15:10:06;;;;;;;0.40;0.40;;;17.60;44.70;18.10;97623.00;;;;5016050;28;20227;-67
2022/02/08 15:13:00;;;;;;;0.20;0.20;;;17.40;45.10;17.60;97615.00;;;;5057182;28;21338;-66
2022/02/08 15:19:11;;;;;;;0.37;0.30;;;16.70;45.00;14.60;97596.00;;;;5012013;28;20232;-66
2022/02/08 15:22:01;;;;;;;0.30;0.30;;;15.80;46.50;15.70;97629.00;;;;5056063;28;20254;-67
2022/02/08 15:24:51;;;;;;;0.30;0.20;;;15.50;47.00;15.10;97661.00;;;;5057539;28;20212;-66
2022/02/08 15:27:40;;;;;;;0.50;0.30;;;15.30;47.40;14.30;97647.00;;;;5053048;28;20223;-67
2022/02/08 15:30:33;;;;;;;2.83;0.80;;;14.70;48.10;12.40;97646.00;;;;5050749;28;20233;-67
2022/02/08 15:33:23;;;;;;;4.73;2.93;;;13.70;49.70;11.10;97643.00;;;;5056769;28;20207;-66
2022/02/08 15:36:15;;;;;;;11.77;6.00;;;12.60;52.50;10.40;97652.00;;;;5060370;28;20225;-66
2022/02/08 15:39:07;;;;;;;8.50;5.57;;;11.80;54.40;10.60;97635.00;;;;5061309;28;20207;-65
2022/02/08 15:41:56;;;;;;;6.87;4.80;;;11.00;56.30;10.20;97643.00;;;;5056775;28;20292;-64
2022/02/08 15:44:48;;;;;;;7.80;4.30;;;10.40;57.20;9.50;97641.00;;;;5055999;28;20211;-64
2022/02/08 15:47:38;;;;;;;5.10;2.97;;;10.00;59.20;8.30;97624.00;;;;5056797;28;20227;-65
2022/02/08 15:50:35;;;;;;;13.00;4.43;;;9.20;61.70;8.30;97627.00;;;;5054258;28;20203;-64
2022/02/08 15:56:50;;;;;;;9.20;4.37;;;8.20;65.90;7.50;97613.00;;;;5061470;28;20202;-65
2022/02/08 16:06:20;;;;;;;8.50;4.80;;;7.00;72.50;6.50;97625.00;;;;5056851;28;20199;-64
2022/02/08 16:09:13;;;;;;;4.70;2.73;;;6.70;75.00;6.40;97618.00;;;;5055231;28;20243;-65
2022/02/08 16:12:25;;;;;;;4.50;2.77;;;6.50;76.60;6.50;97626.00;;;;5050331;28;20220;-65
2022/02/08 16:15:29;;;;;;;8.67;6.60;;;6.30;77.70;6.00;97616.00;;;;5058114;28;20632;-63
2022/02/08 16:18:26;;;;;;;4.63;3.13;;;6.10;80.20;5.40;97607.00;;;;5051465;28;20248;-64
2022/02/08 16:21:43;;;;;;;2.80;2.57;;;5.80;82.30;5.10;97622.00;;;;5057149;28;20349;-67
2022/02/08 16:24:45;;;;;;;3.20;2.60;;;5.50;84.60;4.70;97615.00;;;;5054745;28;20203;-64
2022/02/08 16:27:47;;;;;;;4.73;2.20;;;5.30;87.60;5.00;97616.00;;;;5057991;28;20215;-65
2022/02/08 16:46:44;;;;;;;4.00;2.90;;;5.00;93.00;4.70;97641.00;;;;5043373;28;20292;-66
2022/02/08 16:50:00;;;;;;;6.07;2.00;;;4.90;94.00;4.00;97630.00;;;;5056477;28;20314;-62
2022/02/08 16:53:06;;;;;;;4.33;2.10;;;4.50;96.10;4.40;97630.00;;;;5059248;28;20311;-66
2022/02/08 16:56:08;;;;;;;3.73;2.03;;;4.30;98.00;4.80;97639.00;;;;5052952;28;20723;-65
2022/02/08 16:58:57;;;;;;;1.63;1.53;;;4.30;99.00;4.60;97646.00;;;;5060238;28;20253;-63
2022/02/08 17:01:46;;;;;;;1.63;1.47;;;4.30;99.90;4.30;97644.00;;;;5055599;28;20530;-65
2022/02/08 17:04:36;;;;;;;1.37;1.27;;;4.20;99.90;4.90;97643.00;;;;5056249;28;21183;-65
2022/02/08 17:07:25;;;;;;;2.27;1.60;;;4.20;99.90;5.00;97646.00;;;;5055458;28;20976;-66
2022/02/08 17:10:29;;;;;;;2.40;1.97;;;4.30;99.90;4.90;97650.00;;;;5058064;28;20215;-66
2022/02/08 17:13:35;;;;;;;18.67;13.40;;;4.30;99.90;4.40;97641.00;;;;5059328;28;20214;-65
2022/02/08 17:16:33;;;;;;;8.67;2.77;;;4.30;99.90;4.80;97646.00;;;;5055693;28;20463;-65
2022/02/08 17:19:49;;;;;;;5.17;4.70;;;4.20;99.90;4.20;97645.00;;;;5054533;28;20533;-65